Terminal Aerodrome Forecast
Issued by NWS

Home | Current Version | Previous Version | Text Only | Print | Product List | Glossary On
Versions: 1 2 3 4 5 6 7 8 9 10 11 12 13 14 15 16 17 18
407
FTUS43 KILX 301120
TAFDEC
TAF
KDEC 301120Z 3012/3112 27007KT P6SM SCT110
     FM301900 27013KT P6SM SCT050
     FM302200 26009KT P6SM VCTS SCT050CB BKN150
     FM310400 26004KT P6SM SCT100=

USA.gov is the U.S. government's official web portal to all federal, state and local government web resources and services.